createdAt,value
2016-04-28T00:00:00.978Z,3.32
2016-04-28T00:00:10.994Z,3.33
2016-04-28T00:00:20.994Z,3.39
2016-04-28T00:00:30.997Z,3.26
2016-04-28T00:00:40.997Z,3.32
2016-04-28T00:00:51.012Z,3.32
2016-04-28T00:01:01.012Z,3.35
2016-04-28T00:01:11.012Z,3.23
2016-04-28T00:01:21.012Z,3.24
2016-04-28T00:01:31.030Z,3.33
2016-04-28T00:01:41.030Z,3.31
2016-04-28T00:01:51.030Z,3.29
2016-04-28T00:02:00.874Z,3.23
2016-04-28T00:02:11.030Z,3.31
2016-04-28T00:02:21.046Z,3.32
2016-04-28T00:02:31.048Z,3.23
2016-04-28T00:02:41.048Z,3.28
2016-04-28T00:02:51.063Z,3.28
2016-04-28T00:03:01.063Z,3.32
2016-04-28T00:03:11.063Z,3.23
2016-04-28T00:03:21.063Z,3.26
2016-04-28T00:03:31.083Z,3.29
2016-04-28T00:03:41.083Z,3.32
2016-04-28T00:03:51.083Z,3.31
2016-04-28T00:04:01.083Z,3.29
2016-04-28T00:04:11.099Z,3.32
2016-04-28T00:04:21.099Z,3.29
2016-04-28T00:04:31.117Z,3.23
2016-04-28T00:04:41.102Z,3.29
2016-04-28T00:04:51.117Z,3.28
2016-04-28T00:05:01.117Z,3.29
2016-04-28T00:05:11.117Z,3.28
2016-04-28T00:05:21.117Z,3.32
2016-04-28T00:05:31.135Z,3.24
2016-04-28T00:05:41.135Z,3.15
2016-04-28T00:05:51.135Z,3.26
2016-04-28T00:06:01.135Z,3.32
2016-04-28T00:06:11.135Z,3.32
2016-04-28T00:06:21.150Z,3.26
2016-04-28T00:06:31.152Z,3.26
2016-04-28T00:06:41.152Z,3.28
2016-04-28T00:06:51.152Z,3.29
2016-04-28T00:07:01.168Z,3.24
2016-04-28T00:07:11.168Z,3.28
2016-04-28T00:07:21.168Z,3.23
2016-04-28T00:07:31.188Z,3.24
2016-04-28T00:07:41.188Z,3.29
2016-04-28T00:07:51.188Z,3.26
2016-04-28T00:08:01.188Z,3.28
2016-04-28T00:08:11.188Z,3.26
2016-04-28T00:08:21.203Z,3.32
2016-04-28T00:08:31.205Z,3.24
2016-04-28T00:08:41.252Z,3.29
2016-04-28T00:08:51.205Z,3.28
2016-04-28T00:09:01.221Z,3.29
2016-04-28T00:09:11.221Z,3.33
2016-04-28T00:09:21.221Z,3.33
2016-04-28T00:09:31.223Z,3.26
2016-04-28T00:09:41.239Z,3.29
2016-04-28T00:09:51.239Z,3.29
2016-04-28T00:10:01.239Z,3.28
2016-04-28T00:10:11.239Z,3.2
2016-04-28T00:10:21.426Z,3.31
2016-04-28T00:10:31.773Z,3.24
2016-04-28T00:10:41.851Z,3.28
2016-04-28T00:10:51.257Z,3.26
2016-04-28T00:11:01.382Z,3.31
2016-04-28T00:11:11.804Z,3.28
2016-04-28T00:11:21.117Z,3.29
2016-04-28T00:11:31.370Z,3.15
2016-04-28T00:11:41.651Z,3.23
2016-04-28T00:11:51.291Z,3.26
2016-04-28T00:12:01.291Z,3.32
2016-04-28T00:12:11.291Z,3.24
2016-04-28T00:12:21.307Z,3.24
2016-04-28T00:12:31.310Z,3.29
2016-04-28T00:12:41.310Z,3.28
2016-04-28T00:12:51.310Z,3.29
2016-04-28T00:13:01.326Z,3.29
2016-04-28T00:13:11.326Z,3.31
2016-04-28T00:13:21.326Z,3.23
2016-04-28T00:13:31.344Z,3.28
2016-04-28T00:13:40.579Z,3.26
2016-04-28T00:13:51.344Z,3.29
2016-04-28T00:14:01.344Z,3.21
2016-04-28T00:14:11.344Z,3.29
2016-04-28T00:14:21.360Z,3.28
2016-04-28T00:14:31.362Z,3.26
2016-04-28T00:14:41.362Z,3.26
2016-04-28T00:14:51.362Z,3.28
2016-04-28T00:15:01.378Z,3.29
2016-04-28T00:15:11.378Z,3.31
2016-04-28T00:15:21.378Z,3.23
2016-04-28T00:15:31.380Z,3.28
2016-04-28T00:15:41.395Z,3.26
2016-04-28T00:15:51.395Z,3.26
2016-04-28T00:16:01.395Z,3.29
2016-04-28T00:16:11.395Z,3.33
2016-04-28T00:16:21.411Z,3.29
2016-04-28T00:16:31.415Z,3.31
2016-04-28T00:16:41.415Z,3.28
2016-04-28T00:16:51.415Z,3.29
2016-04-28T00:17:01.430Z,3.29
2016-04-28T00:17:11.430Z,3.29
2016-04-28T00:17:21.430Z,3.33
2016-04-28T00:17:31.432Z,3.31
2016-04-28T00:17:41.432Z,3.33
2016-04-28T00:17:51.448Z,3.33
2016-04-28T00:18:01.448Z,3.29
2016-04-28T00:18:11.448Z,3.28
2016-04-28T00:18:21.448Z,3.33
2016-04-28T00:18:31.951Z,3.33
2016-04-28T00:18:42.107Z,3.33
2016-04-28T00:18:51.467Z,3.31
2016-04-28T00:19:01.482Z,3.23
2016-04-28T00:19:11.482Z,3.29
2016-04-28T00:19:21.482Z,3.32
2016-04-28T00:19:31.484Z,3.31
2016-04-28T00:19:41.484Z,3.31
2016-04-28T00:19:51.500Z,3.33
2016-04-28T00:20:04.391Z,3.26
2016-04-28T00:20:11.500Z,3.35
2016-04-28T00:20:21.516Z,3.31
2016-04-28T00:20:31.519Z,3.35
2016-04-28T00:20:41.519Z,3.31
2016-04-28T00:20:51.519Z,3.32
2016-04-28T00:21:01.519Z,3.35
2016-04-28T00:21:11.534Z,3.33
2016-04-28T00:21:21.550Z,3.31
2016-04-28T00:21:31.537Z,3.31
2016-04-28T00:21:41.553Z,3.33
2016-04-28T00:21:51.553Z,3.32
2016-04-28T00:22:01.553Z,3.29
2016-04-28T00:22:11.553Z,3.32
2016-04-28T00:22:21.553Z,3.26
2016-04-28T00:22:31.571Z,3.29
2016-04-28T00:22:40.806Z,3.29
2016-04-28T00:22:51.571Z,3.29
2016-04-28T00:23:01.571Z,3.24
2016-04-28T00:23:11.587Z,3.29
2016-04-28T00:23:21.587Z,3.26
2016-04-28T00:23:50.870Z,3.26
2016-04-28T00:24:00.839Z,3.2
2016-04-28T00:24:10.855Z,3.31
2016-04-28T00:24:20.855Z,3.29
2016-04-28T00:24:30.858Z,3.26
2016-04-28T00:24:40.858Z,3.33
2016-04-28T00:24:50.873Z,3.24
2016-04-28T00:25:00.873Z,3.28
2016-04-28T00:25:10.889Z,3.23
2016-04-28T00:25:20.873Z,3.26
2016-04-28T00:25:30.892Z,3.23
2016-04-28T00:25:41.345Z,3.32
2016-04-28T00:25:51.658Z,3.29
2016-04-28T00:26:01.079Z,3.28
2016-04-28T00:26:11.204Z,3.29
2016-04-28T00:26:21.798Z,3.23
2016-04-28T00:26:30.942Z,3.29
2016-04-28T00:26:43.161Z,3.21
2016-04-28T00:26:50.926Z,3.33
2016-04-28T00:27:00.817Z,3.26
2016-04-28T00:27:11.286Z,3.29
2016-04-28T00:27:21.692Z,3.28
2016-04-28T00:27:30.944Z,3.24
2016-04-28T00:27:40.944Z,3.28
2016-04-28T00:27:50.944Z,3.32
2016-04-28T00:28:01.397Z,3.26
2016-04-28T00:28:11.803Z,3.24
2016-04-28T00:28:20.959Z,3.26
2016-04-28T00:28:30.961Z,3.31
2016-04-28T00:28:40.961Z,3.31
2016-04-28T00:28:50.961Z,3.29
2016-04-28T00:29:00.977Z,3.29
2016-04-28T00:29:10.977Z,3.28
2016-04-28T00:29:20.977Z,3.08
2016-04-28T00:29:31.715Z,3.26
2016-04-28T00:29:40.997Z,3.28
2016-04-28T00:29:50.997Z,3.24
2016-04-28T00:30:00.997Z,3.17
2016-04-28T00:30:11.012Z,3.28
2016-04-28T00:30:21.012Z,3.13
2016-04-28T00:30:31.014Z,3.2
2016-04-28T00:30:41.014Z,3.17
2016-04-28T00:30:51.030Z,3.26
2016-04-28T00:31:01.030Z,3.18
2016-04-28T00:31:11.046Z,3.18
2016-04-28T00:31:21.030Z,3.13
2016-04-28T00:31:31.049Z,3.23
2016-04-28T00:31:41.049Z,3.18
2016-04-28T00:31:51.049Z,3.21
2016-04-28T00:32:01.064Z,3.18
2016-04-28T00:32:11.064Z,3.2
2016-04-28T00:32:21.064Z,3.18
2016-04-28T00:32:31.082Z,3.15
2016-04-28T00:32:41.066Z,3.18
2016-04-28T00:32:51.082Z,3.17
2016-04-28T00:33:01.082Z,3.17
2016-04-28T00:33:11.082Z,3.15
2016-04-28T00:33:21.082Z,3.15
2016-04-28T00:33:31.100Z,3.13
2016-04-28T00:33:41.100Z,3.2
2016-04-28T00:33:51.100Z,3.18
2016-04-28T00:34:00.944Z,3.2
2016-04-28T00:34:11.100Z,3.17
2016-04-28T00:34:21.116Z,3.15
2016-04-28T00:34:31.119Z,3.18
2016-04-28T00:34:41.119Z,3.2
2016-04-28T00:34:51.119Z,3.18
2016-04-28T00:35:01.135Z,3.21
2016-04-28T00:35:11.135Z,3.17
2016-04-28T00:35:21.135Z,3.17
2016-04-28T00:35:31.137Z,3.17
2016-04-28T00:35:41.152Z,3.17
2016-04-28T00:35:51.152Z,3.15
2016-04-28T00:36:01.152Z,3.23
2016-04-28T00:36:11.152Z,3.21
2016-04-28T00:36:21.168Z,3.18
2016-04-28T00:36:31.171Z,3.17
2016-04-28T00:36:41.171Z,3.15
2016-04-28T00:36:51.171Z,3.18
2016-04-28T00:37:01.187Z,3.17
2016-04-28T00:37:11.187Z,3.18
2016-04-28T00:37:21.187Z,3.17
2016-04-28T00:37:31.190Z,3.21
2016-04-28T00:37:41.205Z,3.13
2016-04-28T00:37:51.205Z,3.15
2016-04-28T00:38:01.221Z,3.17
2016-04-28T00:38:11.221Z,3.23
2016-04-28T00:38:21.205Z,3.2
2016-04-28T00:38:31.224Z,3.14
2016-04-28T00:38:41.224Z,3.21
2016-04-28T00:38:51.224Z,3.13
2016-04-28T00:39:01.239Z,3.24
2016-04-28T00:39:11.239Z,3.17
2016-04-28T00:39:21.239Z,3.21
2016-04-28T00:39:31.241Z,3.26
2016-04-28T00:39:41.257Z,3.26
2016-04-28T00:39:51.257Z,3.24
2016-04-28T00:40:01.273Z,3.29
2016-04-28T00:40:11.257Z,3.31
2016-04-28T00:40:21.257Z,3.29
2016-04-28T00:40:30.507Z,3.29
2016-04-28T00:40:42.088Z,3.29
2016-04-28T00:40:53.010Z,3.33
2016-04-28T00:41:01.682Z,3.33
2016-04-28T00:41:11.401Z,3.26
2016-04-28T00:41:21.838Z,3.35
2016-04-28T00:41:31.293Z,3.4
2016-04-28T00:41:41.887Z,3.32
2016-04-28T00:41:51.309Z,3.39
2016-04-28T00:42:01.309Z,3.33
2016-04-28T00:42:11.309Z,3.39
2016-04-28T00:42:21.325Z,3.35
2016-04-28T00:42:31.329Z,3.32
2016-04-28T00:42:41.329Z,3.39
2016-04-28T00:42:51.329Z,3.33
2016-04-28T00:43:01.344Z,3.29
2016-04-28T00:43:11.344Z,3.32
2016-04-28T00:43:21.344Z,3.36
2016-04-28T00:43:50.362Z,3.35
2016-04-28T00:44:00.331Z,3.35
2016-04-28T00:44:10.331Z,3.47
2016-04-28T00:44:20.331Z,3.42
2016-04-28T00:44:30.331Z,3.43
2016-04-28T00:44:40.349Z,3.48
2016-04-28T00:44:50.349Z,3.43
2016-04-28T00:45:00.349Z,3.4
2016-04-28T00:45:10.365Z,3.45
2016-04-28T00:45:20.365Z,3.31
2016-04-28T00:45:30.365Z,3.36
2016-04-28T00:45:40.367Z,3.4
2016-04-28T00:45:50.414Z,3.43
2016-04-28T00:46:00.367Z,3.28
2016-04-28T00:46:10.382Z,3.4
2016-04-28T00:46:20.664Z,3.36
2016-04-28T00:46:30.382Z,3.35
2016-04-28T00:46:40.401Z,3.29
2016-04-28T00:46:50.401Z,3.4
2016-04-28T00:47:00.401Z,3.32
2016-04-28T00:47:10.401Z,3.43
2016-04-28T00:47:20.417Z,3.31
2016-04-28T00:47:30.417Z,3.29
2016-04-28T00:47:40.420Z,3.26
2016-04-28T00:47:50.592Z,3.29
2016-04-28T00:48:00.435Z,3.35
2016-04-28T00:48:10.435Z,3.42
2016-04-28T00:48:20.435Z,3.36
2016-04-28T00:48:30.435Z,3.36
2016-04-28T00:48:40.453Z,3.35
2016-04-28T00:48:50.453Z,3.43
2016-04-28T00:49:00.453Z,3.42
2016-04-28T00:49:10.469Z,3.39
2016-04-28T00:49:20.531Z,3.45
2016-04-28T00:49:30.469Z,3.39
2016-04-28T00:49:40.159Z,3.45
2016-04-28T00:49:50.597Z,3.43
2016-04-28T00:50:00.472Z,3.45
2016-04-28T00:50:10.487Z,3.35
2016-04-28T00:50:20.565Z,3.28
2016-04-28T00:50:30.487Z,3.4
2016-04-28T00:50:40.506Z,3.47
2016-04-28T00:50:50.506Z,3.32
2016-04-28T00:51:19.568Z,3.4
2016-04-28T00:51:29.553Z,3.32
2016-04-28T00:51:39.556Z,3.4
2016-04-28T00:51:49.556Z,3.33
2016-04-28T00:51:59.571Z,3.47
2016-04-28T00:52:09.571Z,3.28
2016-04-28T00:52:19.571Z,3.43
2016-04-28T00:52:29.571Z,3.48
2016-04-28T00:52:39.589Z,3.33
2016-04-28T00:52:49.589Z,3.42
2016-04-28T00:52:59.589Z,3.29
2016-04-28T00:53:09.605Z,3.4
2016-04-28T00:53:19.667Z,3.43
2016-04-28T00:53:29.620Z,3.48
2016-04-28T00:53:39.608Z,3.31
2016-04-28T00:53:49.608Z,3.39
2016-04-28T00:53:59.623Z,3.45
2016-04-28T00:54:09.623Z,3.42
2016-04-28T00:54:19.686Z,3.42
2016-04-28T00:54:29.623Z,3.42
2016-04-28T00:54:39.642Z,3.39
2016-04-28T00:54:49.642Z,3.43
2016-04-28T00:54:59.642Z,3.33
2016-04-28T00:55:09.642Z,3.4
2016-04-28T00:55:19.657Z,3.45
2016-04-28T00:55:29.704Z,3.29
2016-04-28T00:55:39.769Z,3.4
2016-04-28T00:55:50.159Z,3.42
2016-04-28T00:56:00.503Z,3.36
2016-04-28T00:56:11.378Z,3.33
2016-04-28T00:56:19.534Z,3.47
2016-04-28T00:56:29.519Z,3.47
2016-04-28T00:56:40.350Z,3.4
2016-04-28T00:56:49.537Z,3.29
2016-04-28T00:57:00.897Z,3.39
2016-04-28T00:57:10.131Z,3.39
2016-04-28T00:57:19.709Z,3.36
2016-04-28T00:57:29.709Z,3.48
2016-04-28T00:57:39.744Z,3.33
2016-04-28T00:57:49.712Z,3.36
2016-04-28T00:57:59.728Z,3.45
2016-04-28T00:58:09.728Z,3.39
2016-04-28T00:58:19.728Z,3.47
2016-04-28T00:58:29.728Z,3.33
2016-04-28T00:58:39.746Z,3.45
2016-04-28T00:58:49.746Z,3.45
2016-04-28T00:58:59.746Z,3.4
2016-04-28T00:59:09.746Z,3.42
2016-04-28T00:59:19.761Z,3.48
2016-04-28T00:59:29.761Z,3.4
2016-04-28T00:59:39.764Z,3.51
2016-04-28T00:59:49.764Z,3.42
2016-04-28T00:59:59.764Z,3.31
2016-04-28T01:00:09.780Z,3.33
2016-04-28T01:00:19.780Z,3.32
2016-04-28T01:00:29.780Z,3.35
2016-04-28T01:00:39.783Z,3.33
2016-04-28T01:00:49.798Z,3.26
2016-04-28T01:00:59.798Z,3.35
2016-04-28T01:01:09.798Z,3.4
2016-04-28T01:01:19.798Z,3.39
2016-04-28T01:01:29.814Z,3.28
2016-04-28T01:01:39.816Z,3.47
2016-04-28T01:01:49.816Z,3.33
2016-04-28T01:01:59.816Z,3.45
2016-04-28T01:02:09.832Z,3.29
2016-04-28T01:02:19.832Z,3.39
2016-04-28T01:02:29.832Z,3.4
2016-04-28T01:02:39.850Z,3.33
2016-04-28T01:02:49.694Z,3.35
2016-04-28T01:02:59.850Z,3.32
2016-04-28T01:03:09.850Z,3.43
2016-04-28T01:03:19.850Z,3.35
2016-04-28T01:03:29.850Z,3.43
2016-04-28T01:03:39.869Z,3.39
2016-04-28T01:03:49.885Z,3.36
2016-04-28T01:03:59.869Z,3.33
2016-04-28T01:04:09.885Z,3.43
2016-04-28T01:04:19.885Z,3.47
2016-04-28T01:04:29.885Z,3.33
2016-04-28T01:04:39.888Z,3.43
2016-04-28T01:04:49.903Z,3.35
2016-04-28T01:04:59.903Z,3.28
2016-04-28T01:05:09.903Z,3.33
2016-04-28T01:05:19.903Z,3.32
2016-04-28T01:05:29.919Z,3.33
2016-04-28T01:05:39.921Z,3.48
2016-04-28T01:05:49.921Z,3.39
2016-04-28T01:05:59.921Z,3.4
2016-04-28T01:06:09.968Z,3.35
2016-04-28T01:06:19.936Z,3.47
2016-04-28T01:06:29.952Z,3.28
2016-04-28T01:06:39.955Z,3.35
2016-04-28T01:06:50.018Z,3.31
2016-04-28T01:06:59.955Z,3.31
2016-04-28T01:07:09.955Z,3.45
2016-04-28T01:07:19.955Z,3.45
2016-04-28T01:07:29.955Z,3.43
2016-04-28T01:07:39.973Z,3.43
2016-04-28T01:07:49.973Z,3.42
2016-04-28T01:07:59.988Z,3.4
2016-04-28T01:08:09.988Z,3.39
2016-04-28T01:08:19.988Z,3.42
2016-04-28T01:08:29.988Z,3.45
2016-04-28T01:08:39.991Z,3.35
2016-04-28T01:08:50.007Z,3.4
2016-04-28T01:09:00.007Z,3.35
2016-04-28T01:09:10.007Z,3.28
2016-04-28T01:09:20.023Z,3.43
2016-04-28T01:09:30.023Z,3.42
2016-04-28T01:09:40.026Z,3.33
2016-04-28T01:09:50.026Z,3.32
2016-04-28T01:10:00.026Z,3.39
2016-04-28T01:10:10.026Z,3.35
2016-04-28T01:10:20.041Z,3.39
2016-04-28T01:10:30.041Z,3.39
2016-04-28T01:10:39.887Z,3.36
2016-04-28T01:10:50.153Z,3.45
2016-04-28T01:11:00.653Z,3.35
2016-04-28T01:11:11.778Z,3.43
2016-04-28T01:11:21.278Z,3.35
2016-04-28T01:11:31.484Z,3.39
2016-04-28T01:11:41.234Z,3.4
2016-04-28T01:11:50.077Z,3.43
2016-04-28T01:12:00.609Z,3.43
2016-04-28T01:12:09.937Z,3.33
2016-04-28T01:12:20.093Z,3.4
2016-04-28T01:12:30.093Z,3.31
2016-04-28T01:12:40.096Z,3.45
2016-04-28T01:12:50.096Z,3.4
2016-04-28T01:13:00.112Z,3.45
2016-04-28T01:13:10.112Z,3.35
2016-04-28T01:13:20.112Z,3.39
2016-04-28T01:13:30.127Z,3.42
2016-04-28T01:13:40.130Z,3.32
2016-04-28T01:13:50.130Z,3.39
2016-04-28T01:14:00.130Z,3.4
2016-04-28T01:14:10.146Z,3.47
2016-04-28T01:14:20.146Z,3.43
2016-04-28T01:14:30.146Z,3.35
2016-04-28T01:14:40.148Z,3.36
2016-04-28T01:14:50.148Z,3.43
2016-04-28T01:15:00.148Z,3.36
2016-04-28T01:15:10.164Z,3.35
2016-04-28T01:15:20.195Z,3.35
2016-04-28T01:15:50.042Z,3.32
2016-04-28T01:15:59.182Z,3.39
2016-04-28T01:16:09.182Z,3.32
2016-04-28T01:16:19.198Z,3.29
2016-04-28T01:16:29.198Z,3.33
2016-04-28T01:16:39.201Z,3.31
2016-04-28T01:16:49.201Z,3.33
2016-04-28T01:16:59.216Z,3.35
2016-04-28T01:17:09.216Z,3.32
2016-04-28T01:17:19.216Z,3.31
2016-04-28T01:17:29.216Z,3.36
2016-04-28T01:17:39.219Z,3.31
2016-04-28T01:17:49.235Z,3.39
2016-04-28T01:17:59.235Z,3.26
2016-04-28T01:18:09.235Z,3.33
2016-04-28T01:18:19.251Z,3.35
2016-04-28T01:18:29.251Z,3.39
2016-04-28T01:18:39.253Z,3.39
2016-04-28T01:18:49.253Z,3.32
2016-04-28T01:18:59.268Z,3.35
2016-04-28T01:19:09.268Z,3.29
2016-04-28T01:19:19.268Z,3.26
2016-04-28T01:19:29.268Z,3.33
2016-04-28T01:19:39.271Z,3.39
2016-04-28T01:19:49.287Z,3.31
2016-04-28T01:19:59.287Z,3.42
2016-04-28T01:20:09.287Z,3.26
2016-04-28T01:20:19.287Z,3.32
2016-04-28T01:20:29.303Z,3.26
2016-04-28T01:20:39.305Z,3.43
2016-04-28T01:20:49.320Z,3.39
2016-04-28T01:20:59.851Z,3.36
2016-04-28T01:21:09.320Z,3.42
2016-04-28T01:21:19.320Z,3.39
2016-04-28T01:21:29.320Z,3.43
2016-04-28T01:21:39.323Z,3.26
2016-04-28T01:21:49.339Z,3.35
2016-04-28T01:21:59.339Z,3.32
2016-04-28T01:22:09.339Z,3.32
2016-04-28T01:22:19.339Z,3.36
2016-04-28T01:22:29.354Z,3.4
2016-04-28T01:22:39.357Z,3.42
2016-04-28T01:22:49.357Z,3.39
2016-04-28T01:22:59.357Z,3.32
2016-04-28T01:23:09.373Z,3.42
2016-04-28T01:23:19.373Z,3.31
2016-04-28T01:23:29.373Z,3.28
2016-04-28T01:23:39.375Z,3.33
2016-04-28T01:23:49.391Z,3.36
2016-04-28T01:23:59.563Z,3.42
2016-04-28T01:24:09.656Z,3.36
2016-04-28T01:24:19.391Z,3.39
2016-04-28T01:24:29.406Z,3.31
2016-04-28T01:24:39.409Z,3.31
2016-04-28T01:24:49.409Z,3.28
2016-04-28T01:24:59.409Z,3.23
2016-04-28T01:25:09.425Z,3.33
2016-04-28T01:25:19.425Z,3.4
2016-04-28T01:25:29.425Z,3.42
2016-04-28T01:25:39.428Z,3.45
2016-04-28T01:25:49.444Z,3.28
2016-04-28T01:25:59.303Z,3.33
2016-04-28T01:26:09.287Z,3.33
2016-04-28T01:26:19.631Z,3.32
2016-04-28T01:26:29.459Z,3.36
2016-04-28T01:26:42.353Z,3.42
2016-04-28T01:26:50.103Z,3.35
2016-04-28T01:26:59.478Z,3.29
2016-04-28T01:27:09.478Z,3.26
2016-04-28T01:27:19.478Z,3.43
2016-04-28T01:27:29.478Z,3.45
2016-04-28T01:27:39.480Z,3.29
2016-04-28T01:27:49.480Z,3.29
2016-04-28T01:27:59.495Z,3.36
2016-04-28T01:28:09.495Z,3.39
2016-04-28T01:28:19.495Z,3.33
2016-04-28T01:28:29.511Z,3.42
2016-04-28T01:28:39.514Z,3.48
2016-04-28T01:28:49.514Z,3.39
2016-04-28T01:28:59.514Z,3.29
2016-04-28T01:29:09.530Z,3.4
2016-04-28T01:29:19.561Z,3.45
2016-04-28T01:29:29.530Z,3.43
2016-04-28T01:29:39.533Z,3.32
2016-04-28T01:29:49.533Z,3.42
2016-04-28T01:29:59.548Z,3.36
2016-04-28T01:30:09.548Z,3.29
2016-04-28T01:30:19.564Z,3.39
2016-04-28T01:30:29.564Z,3.5
2016-04-28T01:30:39.567Z,3.42
2016-04-28T01:30:49.567Z,3.32
2016-04-28T01:30:59.567Z,3.48
2016-04-28T01:31:09.567Z,3.47
2016-04-28T01:31:19.583Z,3.43
2016-04-28T01:31:29.583Z,3.42
2016-04-28T01:31:39.585Z,3.43
2016-04-28T01:31:49.600Z,3.47
2016-04-28T01:31:59.600Z,3.39
2016-04-28T01:32:09.600Z,3.45
2016-04-28T01:32:19.600Z,3.39
2016-04-28T01:32:29.616Z,3.42
2016-04-28T01:32:39.618Z,3.43
2016-04-28T01:32:49.618Z,3.39
2016-04-28T01:32:59.618Z,3.42
2016-04-28T01:33:09.618Z,3.31
2016-04-28T01:33:19.633Z,3.36
2016-04-28T01:33:29.633Z,3.42
2016-04-28T01:33:39.636Z,3.42
2016-04-28T01:33:49.636Z,3.39
2016-04-28T01:33:59.652Z,3.43
2016-04-28T01:34:09.652Z,3.45
2016-04-28T01:34:19.652Z,3.36
2016-04-28T01:34:29.652Z,3.43
2016-04-28T01:34:39.671Z,3.52
2016-04-28T01:34:49.671Z,3.4
2016-04-28T01:34:59.671Z,3.36
2016-04-28T01:35:09.686Z,3.5
2016-04-28T01:35:19.671Z,3.48
2016-04-28T01:35:29.686Z,3.4
2016-04-28T01:35:39.689Z,3.42
2016-04-28T01:35:49.705Z,3.43
2016-04-28T01:35:59.705Z,3.51
2016-04-28T01:36:09.705Z,3.45
2016-04-28T01:36:19.705Z,3.39
2016-04-28T01:36:29.705Z,3.52
2016-04-28T01:36:39.723Z,3.48
2016-04-28T01:36:49.723Z,3.54
2016-04-28T01:36:59.723Z,3.5
2016-04-28T01:37:09.723Z,3.5
2016-04-28T01:37:19.738Z,3.54
2016-04-28T01:37:29.738Z,3.51
2016-04-28T01:37:39.742Z,3.47
2016-04-28T01:37:49.742Z,3.5
2016-04-28T01:37:59.742Z,3.47
2016-04-28T01:38:09.758Z,3.42
2016-04-28T01:38:19.758Z,3.52
2016-04-28T01:38:29.758Z,3.58
2016-04-28T01:38:39.775Z,3.42
2016-04-28T01:38:49.775Z,3.52
2016-04-28T01:38:59.775Z,3.45
2016-04-28T01:39:09.775Z,3.57
2016-04-28T01:39:19.775Z,3.55
2016-04-28T01:39:29.791Z,3.57
2016-04-28T01:39:39.794Z,3.55
2016-04-28T01:39:49.794Z,3.48
2016-04-28T01:39:59.810Z,3.57
2016-04-28T01:40:09.810Z,3.55
2016-04-28T01:40:19.810Z,3.58
2016-04-28T01:40:29.810Z,3.6
2016-04-28T01:40:39.812Z,3.57
2016-04-28T01:40:50.218Z,3.52
2016-04-28T01:40:59.827Z,3.61
2016-04-28T01:41:09.843Z,3.57
2016-04-28T01:41:19.827Z,3.55
2016-04-28T01:41:29.843Z,3.65
2016-04-28T01:41:39.768Z,3.58
2016-04-28T01:41:51.408Z,3.72
2016-04-28T01:42:00.143Z,3.57
2016-04-28T01:42:09.862Z,3.66
2016-04-28T01:42:19.862Z,3.65
2016-04-28T01:42:29.862Z,3.62
2016-04-28T01:42:39.865Z,3.62
2016-04-28T01:42:49.880Z,3.68
2016-04-28T01:42:59.880Z,3.65
2016-04-28T01:43:09.880Z,3.58
2016-04-28T01:43:19.880Z,3.6
2016-04-28T01:43:29.896Z,3.66
2016-04-28T01:43:39.899Z,3.66
2016-04-28T01:43:49.899Z,3.65
2016-04-28T01:43:59.914Z,3.72
2016-04-28T01:44:09.914Z,3.6
2016-04-28T01:44:19.930Z,3.68
2016-04-28T01:44:29.914Z,3.62
2016-04-28T01:44:39.916Z,3.72
2016-04-28T01:44:49.932Z,3.7
2016-04-28T01:44:59.932Z,3.69
2016-04-28T01:45:09.932Z,3.61
2016-04-28T01:45:19.932Z,3.69
2016-04-28T01:45:29.948Z,3.72
2016-04-28T01:45:39.950Z,3.66
2016-04-28T01:45:49.950Z,3.62
2016-04-28T01:45:59.950Z,3.7
2016-04-28T01:46:09.965Z,3.7
2016-04-28T01:46:19.965Z,3.68
2016-04-28T01:46:29.965Z,3.68
2016-04-28T01:46:39.969Z,3.75
2016-04-28T01:46:49.985Z,3.65
2016-04-28T01:46:59.985Z,3.7
2016-04-28T01:47:09.985Z,3.7
2016-04-28T01:47:19.985Z,3.66
2016-04-28T01:47:30.001Z,3.65
2016-04-28T01:47:40.003Z,3.7
2016-04-28T01:47:50.003Z,3.69
2016-04-28T01:48:00.003Z,3.73
2016-04-28T01:48:10.018Z,3.68
2016-04-28T01:48:20.018Z,3.76
2016-04-28T01:48:30.018Z,3.72
2016-04-28T01:48:40.021Z,3.76
2016-04-28T01:48:50.037Z,3.72
2016-04-28T01:49:00.037Z,3.72
2016-04-28T01:49:10.037Z,3.72
2016-04-28T01:49:20.037Z,3.72
2016-04-28T01:49:30.052Z,3.75
2016-04-28T01:49:40.054Z,3.75
2016-04-28T01:49:50.054Z,3.72
2016-04-28T01:50:00.054Z,3.68
2016-04-28T01:50:10.054Z,3.72
2016-04-28T01:50:20.070Z,3.76
2016-04-28T01:50:30.070Z,3.68
2016-04-28T01:50:40.074Z,3.78
2016-04-28T01:50:50.090Z,3.78
2016-04-28T01:51:00.090Z,3.72
2016-04-28T01:51:10.090Z,3.72
2016-04-28T01:51:20.090Z,3.72
2016-04-28T01:51:30.105Z,3.8
2016-04-28T01:51:40.107Z,3.84
2016-04-28T01:51:50.107Z,3.73
2016-04-28T01:52:00.107Z,3.7
2016-04-28T01:52:10.107Z,3.76
2016-04-28T01:52:20.123Z,3.72
2016-04-28T01:52:30.123Z,3.79
2016-04-28T01:52:40.125Z,3.75
2016-04-28T01:52:50.125Z,3.7
2016-04-28T01:53:00.141Z,3.79
2016-04-28T01:53:10.141Z,3.72
2016-04-28T01:53:20.141Z,3.7
2016-04-28T01:53:30.156Z,3.78
2016-04-28T01:53:40.160Z,3.75
2016-04-28T01:53:50.160Z,3.84
2016-04-28T01:54:00.160Z,3.75
2016-04-28T01:54:10.176Z,3.8
2016-04-28T01:54:20.176Z,3.73
2016-04-28T01:54:30.176Z,3.75
2016-04-28T01:54:40.193Z,3.76
2016-04-28T01:54:50.178Z,3.83
2016-04-28T01:55:00.193Z,3.79
2016-04-28T01:55:10.193Z,3.79
2016-04-28T01:55:20.193Z,3.76
2016-04-28T01:55:30.193Z,3.79
2016-04-28T01:55:40.212Z,3.79
2016-04-28T01:55:50.353Z,3.79
2016-04-28T01:56:00.446Z,3.78
2016-04-28T01:56:10.743Z,3.73
2016-04-28T01:56:20.446Z,3.76
2016-04-28T01:56:30.228Z,3.79
2016-04-28T01:56:40.230Z,3.86
2016-04-28T01:56:50.073Z,3.8
2016-04-28T01:57:00.089Z,3.8
2016-04-28T01:57:10.355Z,3.88
2016-04-28T01:57:20.245Z,3.75
2016-04-28T01:57:30.245Z,3.86
2016-04-28T01:57:40.264Z,3.86
2016-04-28T01:57:50.264Z,3.8
2016-04-28T01:58:00.264Z,3.86
2016-04-28T01:58:10.264Z,3.87
2016-04-28T01:58:20.280Z,3.79
2016-04-28T01:58:30.280Z,3.86
2016-04-28T01:58:40.282Z,3.93
2016-04-28T01:58:50.297Z,3.86
2016-04-28T01:59:00.297Z,3.84
2016-04-28T01:59:10.407Z,3.86
2016-04-28T01:59:20.360Z,3.86
2016-04-28T01:59:30.328Z,3.86
2016-04-28T01:59:40.317Z,3.87
2016-04-28T01:59:50.317Z,3.84
2016-04-28T02:00:00.317Z,3.87
2016-04-28T02:00:10.317Z,3.83
2016-04-28T02:00:20.332Z,3.9
2016-04-28T02:00:30.332Z,3.86
2016-04-28T02:00:40.334Z,3.9
2016-04-28T02:00:50.350Z,3.84
2016-04-28T02:01:00.350Z,3.94
2016-04-28T02:01:10.366Z,3.79
2016-04-28T02:01:20.350Z,3.9
2016-04-28T02:01:30.350Z,3.83
2016-04-28T02:01:40.368Z,3.84
2016-04-28T02:01:50.368Z,3.8
2016-04-28T02:02:00.368Z,3.83
2016-04-28T02:02:10.368Z,3.84
2016-04-28T02:02:20.383Z,3.86
2016-04-28T02:02:30.383Z,3.86
2016-04-28T02:02:40.387Z,3.86
2016-04-28T02:02:50.403Z,3.84
2016-04-28T02:03:00.403Z,3.93
2016-04-28T02:03:10.403Z,3.8
2016-04-28T02:03:20.403Z,3.9
2016-04-28T02:03:30.419Z,3.84
2016-04-28T02:03:40.421Z,3.8
2016-04-28T02:03:50.421Z,3.84
2016-04-28T02:04:00.421Z,3.79
2016-04-28T02:04:10.421Z,3.8
2016-04-28T02:04:20.436Z,3.84
2016-04-28T02:04:30.436Z,3.86
2016-04-28T02:04:40.439Z,3.78
2016-04-28T02:04:50.455Z,3.94
2016-04-28T02:05:00.455Z,3.84
2016-04-28T02:05:10.455Z,3.78
2016-04-28T02:05:20.549Z,3.75
2016-04-28T02:05:30.455Z,3.8
2016-04-28T02:05:40.472Z,3.8
2016-04-28T02:05:50.472Z,3.83
2016-04-28T02:06:00.472Z,3.86
2016-04-28T02:06:10.472Z,3.91
2016-04-28T02:06:20.488Z,3.87
2016-04-28T02:06:30.488Z,3.84
2016-04-28T02:06:40.491Z,3.88
2016-04-28T02:06:50.491Z,3.84
2016-04-28T02:07:00.507Z,3.83
2016-04-28T02:07:10.507Z,3.9
2016-04-28T02:07:20.507Z,3.79
2016-04-28T02:07:30.507Z,3.83
2016-04-28T02:07:40.525Z,3.84
2016-04-28T02:07:50.541Z,3.87
2016-04-28T02:08:00.525Z,3.8
2016-04-28T02:08:10.525Z,3.91
2016-04-28T02:08:20.541Z,3.88
2016-04-28T02:08:30.541Z,3.9
2016-04-28T02:08:40.544Z,3.83
2016-04-28T02:08:50.560Z,3.8
2016-04-28T02:09:00.560Z,3.86
2016-04-28T02:09:10.560Z,3.94
2016-04-28T02:09:20.560Z,3.79
2016-04-28T02:09:30.560Z,3.93
2016-04-28T02:09:40.577Z,3.8
2016-04-28T02:09:50.577Z,3.9
2016-04-28T02:10:00.577Z,3.93
2016-04-28T02:10:10.593Z,3.83
2016-04-28T02:10:20.593Z,3.83
2016-04-28T02:10:30.593Z,3.91
2016-04-28T02:10:40.596Z,3.8
2016-04-28T02:10:50.596Z,3.93
2016-04-28T02:11:01.268Z,3.9
2016-04-28T02:11:10.596Z,3.8
2016-04-28T02:11:20.611Z,3.87
2016-04-28T02:11:30.455Z,3.96
2016-04-28T02:11:40.458Z,3.96
2016-04-28T02:11:50.724Z,3.94
2016-04-28T02:12:00.630Z,3.97
2016-04-28T02:12:10.521Z,4.02
2016-04-28T02:12:20.646Z,3.97
2016-04-28T02:12:30.646Z,4
2016-04-28T02:12:40.648Z,4
2016-04-28T02:12:50.648Z,4
2016-04-28T02:13:00.648Z,3.98
2016-04-28T02:13:10.663Z,4
2016-04-28T02:13:20.663Z,4.06
2016-04-28T02:13:30.663Z,4.05
2016-04-28T02:13:40.682Z,4.05
2016-04-28T02:13:50.682Z,4.05
2016-04-28T02:14:00.682Z,4.05
2016-04-28T02:14:10.682Z,4
2016-04-28T02:14:20.698Z,3.94
2016-04-28T02:14:30.698Z,4.05
2016-04-28T02:14:40.700Z,4.05
2016-04-28T02:14:50.700Z,3.97